Hlavní strana
METAR-TAF:

METAR-TAF

Letiště :

Ancona, Itálie

zeměpisná šířka: 43-37N, zeměpisná délka: 013-22E, výška: 12 m

Aktuální stav počasí

Zpráva byla vytvořena před 1 hodinou a 27 minutami, v 08:50 UTC
vítr z různých směrů 2 kt
Teplota 11°C
Vlhkost vzduchu 62%
Tlak 1025 hPa
Viditelnost 10 km a více
Žádná oblačnost pod 1500 m, nevyskytují se cumulonimby.

METAR: LIPY 180850Z VRB02KT CAVOK 11/04 Q1025

Čas: 11:17 (10:17 UTC)

Předpověď počasí

Zpráva byla vytvořena před 5 hodinami a 17 minutami, v 05:00 UTC
Předpověď platná od 18 v 06 UTC do 19 v 06 UTC
vítr z různých směrů 5 kt
Viditelnost: 8000 m
Změna
od 18 v 20 UTC do 18 v 22 UTC
Viditelnost: 2000 m
kouřmo

TAF: LIPY 180500Z 1806/1906 VRB05KT 8000 NSC BECMG 1820/1822 2000 BR

Stav a předpovědi počasí z více než 4 000 letišť (zprávy METAR a TAF).

Červené a žluté tečky na mapě představují dostupné meteorologické stanice.

Když kurzor umístíte na tečku, zobrazí se název stanice.

Pak kliknutím zobrazíte stav a předpověď počasí.

Chcete-li změnit mapu, kliknutím na zelené tlačítko se znaménkem +mapu přiblížíte, kliknutím na zelené tlačítko se znaménkem – mapu oddálíte a kliknutím na zelené šipky přejdete na sousední mapy.


METAR-TAF: